Time;durP1;ratioP1;P1;durP2;ratioP2;P2;SDS_P1;SDS_P2;PMS_P1;PMS_P2;Temp;Humidity;BMP_temperature;BMP_pressure;BME280_temperature;BME280_humidity;BME280_pressure;Samples;Min_cycle;Max_cycle;Signal;HPM_P1;HPM_P2
2022/04/07 00:00:20;;;;;;;16.98;12.05;;;;;;;10.03;62.82;96876.03;5089258;28;20504;-70
2022/04/07 00:02:46;;;;;;;13.63;9.63;;;;;;;10.02;62.80;96866.22;5089022;28;20719;-70
2022/04/07 00:05:12;;;;;;;19.83;11.55;;;;;;;10.04;62.76;96864.75;5088817;28;20103;-70
2022/04/07 00:07:37;;;;;;;16.90;10.10;;;;;;;10.02;62.98;96849.78;5088258;28;20107;-71
2022/04/07 00:10:04;;;;;;;17.88;10.75;;;;;;;10.05;62.80;96852.66;5092942;28;20385;-70
2022/04/07 00:12:32;;;;;;;20.42;12.02;;;;;;;10.09;62.34;96842.63;5094755;28;20016;-71
2022/04/07 00:14:59;;;;;;;24.02;14.85;;;;;;;10.08;62.66;96849.25;5094022;28;20035;-71
2022/04/07 00:17:25;;;;;;;26.58;14.02;;;;;;;10.07;62.25;96842.16;5094112;28;20020;-70
2022/04/07 00:19:51;;;;;;;20.95;13.52;;;;;;;10.04;62.29;96844.78;5093814;28;20024;-70
2022/04/07 00:22:17;;;;;;;21.75;12.93;;;;;;;9.99;62.63;96851.22;5093931;28;20063;-71
2022/04/07 00:24:42;;;;;;;25.75;13.68;;;;;;;9.93;61.79;96842.41;5094071;28;20103;-70
2022/04/07 00:27:07;;;;;;;24.92;15.27;;;;;;;9.86;62.33;96849.56;5094293;28;20433;-70
2022/04/07 00:29:33;;;;;;;29.20;16.75;;;;;;;9.77;62.22;96846.88;5093771;28;20046;-70
2022/04/07 00:31:59;;;;;;;30.60;16.35;;;;;;;9.73;62.82;96843.19;5094036;28;20490;-71
2022/04/07 00:34:24;;;;;;;25.95;16.33;;;;;;;9.70;62.39;96841.91;5093730;28;20028;-71
2022/04/07 00:36:50;;;;;;;27.48;15.95;;;;;;;9.68;62.85;96841.44;5093466;28;20038;-69
2022/04/07 00:39:16;;;;;;;29.05;16.45;;;;;;;9.63;62.39;96852.56;5093644;28;20016;-69
2022/04/07 00:41:42;;;;;;;39.90;19.42;;;;;;;9.60;62.41;96847.75;5093727;28;20020;-69
2022/04/07 00:44:08;;;;;;;39.40;19.77;;;;;;;9.58;62.42;96848.09;5093535;28;20421;-69
2022/04/07 00:46:38;;;;;;;30.73;17.88;;;;;;;9.56;62.69;96844.09;5094491;28;20021;-70
2022/04/07 00:49:04;;;;;;;29.67;16.17;;;;;;;9.51;63.19;96845.88;5093290;28;20470;-70
2022/04/07 00:51:30;;;;;;;34.75;17.30;;;;;;;9.47;62.92;96847.66;5093004;28;20031;-69
2022/04/07 00:53:57;;;;;;;35.70;18.20;;;;;;;9.45;62.05;96840.91;5093307;28;20607;-69
2022/04/07 00:56:26;;;;;;;22.65;13.65;;;;;;;9.45;62.65;96838.16;5093229;28;20031;-69
2022/04/07 00:58:53;;;;;;;26.13;14.38;;;;;;;9.45;63.16;96838.97;5093319;28;20069;-69
2022/04/07 01:01:23;;;;;;;25.40;13.57;;;;;;;9.44;63.10;96834.63;5092846;28;20024;-70
2022/04/07 01:03:50;;;;;;;22.70;12.27;;;;;;;9.45;62.86;96838.16;5093162;28;20430;-69
2022/04/07 01:06:15;;;;;;;21.40;12.00;;;;;;;9.47;62.91;96830.44;5089528;28;20040;-69
2022/04/07 01:08:41;;;;;;;22.20;11.85;;;;;;;9.50;62.79;96827.03;5093215;28;20024;-69
2022/04/07 01:11:07;;;;;;;23.30;11.90;;;;;;;9.55;62.64;96831.53;5093092;28;20086;-70
2022/04/07 01:13:46;;;;;;;22.17;13.13;;;;;;;9.56;62.90;96833.94;5092984;28;20027;-70
2022/04/07 01:16:13;;;;;;;23.53;12.60;;;;;;;9.61;62.39;96828.28;5093032;28;20035;-70
2022/04/07 01:18:38;;;;;;;15.70;9.45;;;;;;;9.65;62.11;96833.88;5088934;28;20767;-70
2022/04/07 01:21:05;;;;;;;15.60;8.82;;;;;;;9.76;62.10;96826.13;5091599;28;20022;-70
2022/04/07 01:23:34;;;;;;;14.82;8.73;;;;;;;9.82;62.79;96839.28;5092612;28;20502;-70
2022/04/07 01:26:01;;;;;;;12.40;8.40;;;;;;;9.86;62.33;96833.91;5092881;28;20025;-70
2022/04/07 01:28:26;;;;;;;14.38;9.15;;;;;;;9.86;61.78;96833.91;5092797;28;20036;-70
2022/04/07 01:30:52;;;;;;;12.93;7.93;;;;;;;9.87;61.71;96838.25;5092740;28;20413;-70
2022/04/07 01:33:18;;;;;;;16.13;10.80;;;;;;;9.86;61.34;96833.91;5091004;28;20024;-70
2022/04/07 01:35:44;;;;;;;15.18;8.15;;;;;;;9.85;61.30;96837.00;5092478;28;20036;-70
2022/04/07 01:38:10;;;;;;;14.13;9.00;;;;;;;9.80;61.67;96838.78;5092690;28;20099;-70
2022/04/07 01:40:36;;;;;;;14.80;8.63;;;;;;;9.76;61.48;96835.13;5091136;28;20566;-70
2022/04/07 01:43:05;;;;;;;12.98;7.60;;;;;;;9.74;61.48;96840.13;5092036;28;20055;-69
2022/04/07 01:45:33;;;;;;;10.15;6.35;;;;;;;9.71;61.53;96835.28;5088201;28;20389;-70
2022/04/07 01:48:01;;;;;;;12.68;7.53;;;;;;;9.72;61.33;96838.84;5091688;28;20089;-69
2022/04/07 01:50:29;;;;;;;9.85;7.05;;;;;;;9.69;61.29;96840.28;5092196;28;20073;-69
2022/04/07 01:52:56;;;;;;;14.45;7.88;;;;;;;9.66;61.05;96841.78;5091877;28;20099;-70
2022/04/07 01:55:22;;;;;;;15.05;8.27;;;;;;;9.62;61.54;96842.75;5092123;28;20038;-70
2022/04/07 01:57:49;;;;;;;12.25;7.10;;;;;;;9.57;61.02;96834.75;5091754;28;20039;-71
2022/04/07 02:00:15;;;;;;;11.50;7.05;;;;;;;9.54;60.96;96830.72;5091888;28;20099;-69
2022/04/07 02:02:41;;;;;;;13.07;8.15;;;;;;;9.51;61.40;96829.47;5091872;28;20193;-69
2022/04/07 02:05:09;;;;;;;14.23;8.77;;;;;;;9.48;60.97;96827.38;5091786;28;20975;-70
2022/04/07 02:07:36;;;;;;;16.95;10.55;;;;;;;9.45;61.35;96827.22;5091592;28;20028;-70
2022/04/07 02:10:03;;;;;;;15.98;8.60;;;;;;;9.41;60.97;96832.56;5091583;28;20032;-69
2022/04/07 02:12:29;;;;;;;11.38;7.00;;;;;;;9.38;61.35;96833.22;5091694;28;20020;-70
2022/04/07 02:14:56;;;;;;;11.95;7.80;;;;;;;9.36;61.43;96825.34;5091570;28;20043;-69
2022/04/07 02:17:22;;;;;;;12.10;7.68;;;;;;;9.37;61.26;96828.88;5091208;28;20039;-69
2022/04/07 02:19:53;;;;;;;10.73;7.90;;;;;;;9.38;61.20;96825.00;5091470;28;20042;-70
2022/04/07 02:22:19;;;;;;;15.65;10.40;;;;;;;9.39;61.85;96829.34;5091712;28;20027;-70
2022/04/07 02:24:46;;;;;;;12.63;8.15;;;;;;;9.38;61.48;96830.47;5090333;28;20120;-70
2022/04/07 02:27:12;;;;;;;12.65;8.05;;;;;;;9.38;61.84;96830.47;5091304;28;20023;-69
2022/04/07 02:29:37;;;;;;;12.73;8.30;;;;;;;9.38;61.13;96822.25;5091219;28;20023;-70
2022/04/07 02:32:04;;;;;;;15.02;8.77;;;;;;;9.38;61.92;96827.72;5090680;28;20016;-69
2022/04/07 02:34:29;;;;;;;11.98;8.15;;;;;;;9.37;61.59;96821.44;5091158;28;20473;-70
2022/04/07 02:36:55;;;;;;;11.60;8.43;;;;;;;9.42;61.22;96825.13;5091334;28;20031;-70
2022/04/07 02:39:20;;;;;;;12.43;8.43;;;;;;;9.45;61.55;96816.25;5090132;28;20035;-70
2022/04/07 02:41:46;;;;;;;12.80;8.50;;;;;;;9.48;61.70;96816.44;5091209;28;20027;-69
2022/04/07 02:44:11;;;;;;;9.70;7.13;;;;;;;9.49;61.95;96815.28;5090934;28;20428;-70
2022/04/07 02:46:37;;;;;;;11.50;8.15;;;;;;;9.49;61.79;96815.28;5091386;28;20015;-69
2022/04/07 02:49:04;;;;;;;14.23;8.32;;;;;;;9.53;61.75;96809.97;5091039;28;20032;-69
2022/04/07 02:51:31;;;;;;;14.93;9.65;;;;;;;9.55;61.99;96807.69;5089822;28;20427;-70
2022/04/07 02:53:58;;;;;;;12.32;8.98;;;;;;;9.57;62.19;96799.16;5090885;28;20024;-70
2022/04/07 02:56:27;;;;;;;13.77;9.63;;;;;;;9.59;62.10;96803.16;5090803;28;20103;-70
2022/04/07 02:58:53;;;;;;;12.23;8.60;;;;;;;9.61;61.63;96797.34;5086961;28;20432;-69
2022/04/07 03:01:19;;;;;;;12.23;8.38;;;;;;;9.64;61.98;96799.44;5090797;28;20028;-69
2022/04/07 03:03:45;;;;;;;12.70;8.48;;;;;;;9.65;61.83;96803.78;5091074;28;20035;-70
2022/04/07 03:06:11;;;;;;;13.70;9.00;;;;;;;9.68;61.47;96806.66;5091102;28;20027;-70
2022/04/07 03:08:36;;;;;;;12.40;9.13;;;;;;;9.68;61.63;96792.16;5090814;28;20386;-70
2022/04/07 03:11:02;;;;;;;12.95;8.85;;;;;;;9.71;61.13;96802.44;5090809;28;20024;-69
2022/04/07 03:13:28;;;;;;;12.07;8.90;;;;;;;9.71;61.51;96799.72;5090789;28;20406;-70
2022/04/07 03:15:54;;;;;;;11.30;8.40;;;;;;;9.72;61.81;96789.56;5089590;28;20169;-70
2022/04/07 03:18:20;;;;;;;13.48;8.38;;;;;;;9.73;61.84;96797.44;5090771;28;20030;-70
2022/04/07 03:20:45;;;;;;;16.88;9.75;;;;;;;9.75;61.10;96800.66;5090826;28;20473;-69
2022/04/07 03:23:12;;;;;;;11.57;8.25;;;;;;;9.76;61.17;96798.72;5090895;28;20031;-70
2022/04/07 03:25:37;;;;;;;13.00;8.35;;;;;;;9.73;61.39;96793.91;5090856;28;20027;-70
2022/04/07 03:28:06;;;;;;;13.40;8.75;;;;;;;9.72;60.99;96786.84;5090531;28;20024;-69
2022/04/07 03:30:31;;;;;;;12.55;8.30;;;;;;;9.73;61.63;96789.22;5090837;28;20366;-70
2022/04/07 03:32:57;;;;;;;14.18;8.70;;;;;;;9.71;61.07;96788.75;5090612;28;20119;-70
2022/04/07 03:35:22;;;;;;;12.98;8.32;;;;;;;9.71;61.01;96788.75;5090636;28;20402;-69
2022/04/07 03:37:47;;;;;;;12.88;7.88;;;;;;;9.71;60.97;96779.75;5089253;28;20107;-70
2022/04/07 03:40:13;;;;;;;12.38;8.50;;;;;;;9.71;61.03;96777.03;5086112;28;20028;-70
2022/04/07 03:42:39;;;;;;;13.20;8.23;;;;;;;9.71;61.51;96772.34;5089256;28;20035;-70
2022/04/07 03:45:05;;;;;;;11.60;8.02;;;;;;;9.69;60.98;96769.13;5091911;28;20036;-70
2022/04/07 03:47:31;;;;;;;12.98;7.88;;;;;;;9.67;61.56;96765.91;5094518;28;20485;-70
2022/04/07 03:49:57;;;;;;;13.35;7.55;;;;;;;9.66;61.98;96769.78;5094605;28;20051;-70
2022/04/07 03:52:22;;;;;;;13.65;8.88;;;;;;;9.63;61.61;96765.78;5094598;28;20024;-70
2022/04/07 03:54:48;;;;;;;12.75;8.27;;;;;;;9.61;61.78;96772.72;5094693;28;20042;-69
2022/04/07 03:57:13;;;;;;;13.70;8.88;;;;;;;9.59;61.45;96761.28;5094015;28;20039;-70
2022/04/07 03:59:42;;;;;;;12.38;7.95;;;;;;;9.56;61.66;96773.72;5093991;28;20020;-70
2022/04/07 04:02:09;;;;;;;11.93;8.57;;;;;;;9.53;61.41;96764.25;5093595;28;20024;-70
2022/04/07 04:04:35;;;;;;;15.15;8.75;;;;;;;9.51;62.13;96763.78;5093196;28;20020;-70
2022/04/07 04:07:01;;;;;;;13.80;9.60;;;;;;;9.49;62.23;96759.75;5093309;28;20036;-70
2022/04/07 04:09:26;;;;;;;12.27;8.30;;;;;;;9.47;62.19;96762.00;5091784;28;20024;-70
2022/04/07 04:11:52;;;;;;;11.65;9.45;;;;;;;9.45;62.10;96754.16;5093509;28;20012;-70
2022/04/07 04:14:18;;;;;;;11.43;7.90;;;;;;;9.43;62.20;96761.88;5093586;28;20047;-69
2022/04/07 04:16:44;;;;;;;11.40;7.78;;;;;;;9.46;62.54;96755.75;5093197;28;20028;-70
2022/04/07 04:19:10;;;;;;;10.25;7.55;;;;;;;9.47;62.09;96756.53;5091505;28;20024;-70
2022/04/07 04:21:35;;;;;;;9.82;6.50;;;;;;;9.45;62.12;96754.16;5092921;28;20024;-70
2022/04/07 04:24:01;;;;;;;12.00;7.80;;;;;;;9.46;62.18;96760.41;5093196;28;20016;-70
2022/04/07 04:26:26;;;;;;;12.60;7.20;;;;;;;9.45;62.01;96770.56;5092999;28;20024;-69
2022/04/07 04:28:52;;;;;;;12.55;7.78;;;;;;;9.43;61.83;96761.06;5093572;28;20115;-69
2022/04/07 04:31:17;;;;;;;11.77;7.00;;;;;;;9.42;62.02;96763.00;5092129;28;20020;-70
2022/04/07 04:33:43;;;;;;;12.18;8.05;;;;;;;9.44;61.74;96762.66;5093392;28;20042;-70
2022/04/07 04:36:09;;;;;;;13.27;9.63;;;;;;;9.45;62.28;96780.69;5093469;28;20025;-70
2022/04/07 04:38:34;;;;;;;13.25;9.35;;;;;;;9.45;62.00;96765.09;5093182;28;20067;-70
2022/04/07 04:41:00;;;;;;;12.48;8.43;;;;;;;9.46;61.79;96763.16;5093110;28;20417;-70
2022/04/07 04:43:25;;;;;;;12.98;8.38;;;;;;;9.45;62.31;96762.34;5093454;28;20040;-70
2022/04/07 04:45:51;;;;;;;13.63;8.15;;;;;;;9.46;62.47;96760.41;5093271;28;20367;-70
2022/04/07 04:48:16;;;;;;;13.77;8.10;;;;;;;9.49;62.54;96763.31;5092134;28;20020;-70
2022/04/07 04:50:42;;;;;;;13.98;9.18;;;;;;;9.52;62.26;96757.16;5093179;28;20016;-70
2022/04/07 04:53:07;;;;;;;13.00;8.32;;;;;;;9.57;62.12;96760.84;5093285;28;20047;-70
2022/04/07 04:55:33;;;;;;;12.23;7.72;;;;;;;9.63;62.33;96754.84;5092331;28;20024;-69
2022/04/07 04:57:58;;;;;;;16.08;8.70;;;;;;;9.70;62.63;96757.03;5092947;28;20047;-69
2022/04/07 05:00:23;;;;;;;13.52;8.48;;;;;;;9.78;62.17;96755.41;5093065;28;20023;-69
2022/04/07 05:02:49;;;;;;;16.90;8.45;;;;;;;9.85;61.74;96758.38;5094029;28;20448;-70
2022/04/07 05:05:14;;;;;;;14.73;7.93;;;;;;;9.93;61.64;96763.00;5094206;28;20031;-70
2022/04/07 05:07:40;;;;;;;18.75;10.25;;;;;;;9.99;61.62;96760.84;5090097;28;20485;-70
2022/04/07 05:10:06;;;;;;;17.63;9.65;;;;;;;10.04;62.01;96757.91;5082798;28;20504;-69
2022/04/07 05:12:32;;;;;;;15.77;8.88;;;;;;;10.12;61.36;96764.47;5083978;28;20035;-70
2022/04/07 05:14:57;;;;;;;16.75;8.90;;;;;;;10.18;61.85;96763.16;5078406;28;20090;-70
2022/04/07 05:17:22;;;;;;;19.60;9.45;;;;;;;10.25;61.37;96757.91;5126443;27;20093;-70
2022/04/07 05:19:49;;;;;;;18.95;9.20;;;;;;;10.35;61.36;96758.63;5088808;28;20021;-70
2022/04/07 05:22:14;;;;;;;15.23;8.05;;;;;;;10.43;61.32;96758.56;5074688;28;20028;-70
2022/04/07 05:24:39;;;;;;;13.05;6.40;;;;;;;10.56;59.81;96761.38;5074707;28;20025;-69
2022/04/07 05:27:05;;;;;;;19.63;12.38;;;;;;;10.67;59.91;96756.25;5091387;28;20042;-69
2022/04/07 05:29:30;;;;;;;16.05;10.40;;;;;;;10.76;59.53;96756.19;5090658;28;20385;-69
2022/04/07 05:31:56;;;;;;;17.77;10.65;;;;;;;10.81;59.27;96747.72;5114314;28;20102;-70
2022/04/07 05:34:21;;;;;;;12.18;6.95;;;;;;;10.88;59.41;96761.66;5111534;28;20023;-70
2022/04/07 05:36:47;;;;;;;10.35;5.95;;;;;;;10.94;58.54;96752.09;5089855;28;20058;-70
2022/04/07 05:39:13;;;;;;;10.75;6.43;;;;;;;11.00;59.22;96750.72;5086021;28;20095;-70
2022/04/07 05:41:39;;;;;;;16.27;8.60;;;;;;;11.05;58.47;96748.91;5071733;28;20075;-70
2022/04/07 05:44:04;;;;;;;12.10;7.07;;;;;;;11.07;59.30;96752.88;5080524;28;20482;-70
2022/04/07 05:46:30;;;;;;;9.35;5.65;;;;;;;11.08;58.53;96750.97;5091799;28;20028;-70
2022/04/07 05:48:55;;;;;;;11.60;6.25;;;;;;;11.08;58.02;96751.75;5102762;28;20047;-71
2022/04/07 05:51:21;;;;;;;13.20;7.32;;;;;;;11.09;58.12;96756.09;5093108;28;20040;-70
2022/04/07 05:53:46;;;;;;;12.93;8.32;;;;;;;11.12;58.06;96760.13;5092906;28;20611;-70
2022/04/07 05:56:11;;;;;;;9.82;5.60;;;;;;;11.12;57.36;96760.13;5092355;28;20081;-69
2022/04/07 05:58:37;;;;;;;7.20;4.78;;;;;;;11.11;57.87;96764.00;5095113;28;20105;-70
2022/04/07 06:01:02;;;;;;;8.15;4.18;;;;;;;11.11;57.34;96755.78;5077647;28;20098;-70
2022/04/07 06:03:28;;;;;;;6.28;4.40;;;;;;;11.13;57.96;96767.19;5077581;28;20520;-70
2022/04/07 06:05:53;;;;;;;9.57;5.10;;;;;;;11.11;58.12;96759.31;5074365;28;20446;-70
2022/04/07 06:08:19;;;;;;;7.88;3.80;;;;;;;11.10;57.62;96754.94;5090488;28;20103;-70
2022/04/07 06:10:45;;;;;;;10.30;3.90;;;;;;;11.08;57.04;96762.72;5093036;28;20028;-70
2022/04/07 06:13:11;;;;;;;6.43;3.88;;;;;;;11.04;57.78;96766.50;5092533;28;20078;-70
2022/04/07 06:15:37;;;;;;;6.53;3.95;;;;;;;11.00;57.68;96760.91;5092494;28;20020;-70
2022/04/07 06:18:05;;;;;;;7.80;4.07;;;;;;;10.98;57.62;96774.94;5093323;28;20470;-70
2022/04/07 06:20:31;;;;;;;7.38;4.15;;;;;;;10.97;57.93;96775.31;5092709;28;20016;-70
2022/04/07 06:22:57;;;;;;;5.63;3.28;;;;;;;10.95;57.60;96769.34;5092471;28;20028;-68
2022/04/07 06:25:23;;;;;;;7.57;3.25;;;;;;;10.95;58.23;96766.63;5092972;28;20351;-68
2022/04/07 06:27:48;;;;;;;6.55;3.00;;;;;;;10.95;57.48;96755.63;5092769;28;20410;-69
2022/04/07 06:30:19;;;;;;;8.00;3.33;;;;;;;10.95;57.24;96759.16;5087282;28;20024;-69
2022/04/07 06:32:46;;;;;;;6.78;3.20;;;;;;;10.97;57.70;96764.34;5089745;28;20122;-71
2022/04/07 06:35:15;;;;;;;6.40;3.10;;;;;;;11.01;58.07;96763.28;5091271;28;20020;-71
2022/04/07 06:37:55;;;;;;;7.13;2.92;;;;;;;11.08;57.36;96756.44;5085914;28;20416;-70
2022/04/07 06:40:30;;;;;;;8.95;3.35;;;;;;;11.16;57.83;96755.56;5090602;28;20073;-71
2022/04/07 06:42:58;;;;;;;4.05;2.42;;;;;;;11.25;57.02;96761.72;5084945;28;20050;-77
2022/04/07 06:45:26;;;;;;;5.03;2.70;;;;;;;11.31;56.44;96762.28;5089404;28;20027;-73
2022/04/07 06:47:52;;;;;;;5.40;3.15;;;;;;;11.39;56.70;96755.09;5090564;28;20039;-72
2022/04/07 06:50:19;;;;;;;6.65;3.30;;;;;;;11.44;57.04;96755.63;5090418;28;20028;-70
2022/04/07 06:52:44;;;;;;;7.70;3.13;;;;;;;11.50;56.14;96744.44;5093633;28;20038;-71
2022/04/07 06:55:12;;;;;;;6.25;3.00;;;;;;;11.55;56.77;96745.03;5094907;28;20107;-71
2022/04/07 06:57:55;;;;;;;8.05;3.80;;;;;;;11.62;56.12;96744.44;5092436;28;20031;-71
2022/04/07 07:00:25;;;;;;;4.90;2.50;;;;;;;11.64;55.98;96744.06;5087206;28;20032;-71
2022/04/07 07:02:52;;;;;;;4.35;2.17;;;;;;;11.68;56.15;96737.56;5086738;28;20055;-69
2022/04/07 07:05:22;;;;;;;5.47;2.88;;;;;;;11.74;55.45;96746.34;5090733;28;20395;-70
2022/04/07 07:07:48;;;;;;;4.40;2.58;;;;;;;11.79;55.33;96734.34;5091732;28;20032;-70
2022/04/07 07:10:21;;;;;;;7.60;3.03;;;;;;;11.81;55.77;96735.59;5091573;28;20474;-71
2022/04/07 07:12:48;;;;;;;6.88;3.75;;;;;;;11.84;55.69;96740.38;5089765;28;20019;-71
2022/04/07 07:15:13;;;;;;;9.82;4.95;;;;;;;11.91;55.86;96737.03;5090746;28;20031;-73
2022/04/07 07:17:39;;;;;;;5.10;2.30;;;;;;;11.97;54.78;96735.66;5089275;28;20028;-70
2022/04/07 07:20:07;;;;;;;4.40;2.28;;;;;;;12.05;54.91;96736.69;5090795;28;20492;-70
2022/04/07 07:22:33;;;;;;;4.78;2.47;;;;;;;12.16;54.88;96742.50;5089069;28;20027;-73
2022/04/07 07:24:58;;;;;;;4.28;2.40;;;;;;;12.23;53.70;96739.16;5089978;28;20020;-72
2022/04/07 07:27:24;;;;;;;3.92;2.30;;;;;;;12.25;53.17;96743.16;5086214;28;20032;-72
2022/04/07 07:29:50;;;;;;;5.82;2.40;;;;;;;12.29;53.09;96735.00;5089449;28;20024;-72
2022/04/07 07:32:16;;;;;;;4.45;2.65;;;;;;;12.33;53.06;96739.44;5090642;28;20456;-74
2022/04/07 07:34:41;;;;;;;4.15;2.25;;;;;;;12.45;53.23;96751.56;5090499;28;20024;-74
2022/04/07 07:37:06;;;;;;;3.33;1.90;;;;;;;12.51;52.02;96739.94;5085640;28;20126;-73
2022/04/07 07:39:32;;;;;;;4.47;2.30;;;;;;;12.58;52.04;96739.34;5088157;28;20029;-71
2022/04/07 07:41:57;;;;;;;4.13;2.05;;;;;;;12.66;52.62;96737.59;5085943;28;20031;-73
2022/04/07 07:44:24;;;;;;;4.35;1.75;;;;;;;12.75;51.26;96743.72;5087939;28;20517;-71
2022/04/07 07:46:49;;;;;;;3.60;1.95;;;;;;;12.82;51.49;96740.34;5091982;28;20046;-69
2022/04/07 07:49:15;;;;;;;4.70;2.17;;;;;;;12.87;51.24;96731.84;5090451;28;20514;-71
2022/04/07 07:51:40;;;;;;;6.40;2.20;;;;;;;12.98;51.44;96745.88;5090257;28;20090;-70
2022/04/07 07:54:05;;;;;;;4.07;1.77;;;;;;;13.12;51.28;96733.63;5086904;28;20435;-68
2022/04/07 07:56:31;;;;;;;3.50;1.90;;;;;;;13.25;50.68;96735.94;5088904;28;20031;-70
2022/04/07 07:58:56;;;;;;;4.32;2.05;;;;;;;13.35;51.46;96731.03;5088629;28;20436;-67
2022/04/07 08:01:21;;;;;;;3.38;2.50;;;;;;;13.52;50.67;96730.69;5086981;28;20078;-69
2022/04/07 08:03:47;;;;;;;6.55;4.20;;;;;;;13.63;51.45;96727.38;5089137;28;20318;-69
2022/04/07 08:06:13;;;;;;;5.28;2.85;;;;;;;13.81;51.48;96731.34;5088240;28;20397;-68
2022/04/07 08:08:39;;;;;;;7.90;4.00;;;;;;;13.94;51.08;96720.97;5089545;28;20052;-69
2022/04/07 08:11:05;;;;;;;4.68;2.38;;;;;;;14.08;50.49;96728.75;5088264;28;20070;-69
2022/04/07 08:13:30;;;;;;;3.92;2.00;;;;;;;14.17;50.34;96736.78;5091905;28;20123;-68
2022/04/07 08:15:55;;;;;;;4.15;2.72;;;;;;;14.24;50.28;96722.38;5089301;28;20019;-68
2022/04/07 08:18:23;;;;;;;7.80;3.03;;;;;;;14.29;50.55;96730.31;5090096;28;20024;-68
2022/04/07 08:20:48;;;;;;;4.22;2.50;;;;;;;14.36;50.21;96746.22;5089055;28;20763;-69
2022/04/07 08:23:14;;;;;;;6.53;2.30;;;;;;;14.28;49.03;96732.31;5088914;28;20038;-68
2022/04/07 08:25:39;;;;;;;3.60;2.38;;;;;;;14.12;49.08;96724.09;5086876;28;20040;-68
2022/04/07 08:28:05;;;;;;;2.90;1.95;;;;;;;14.05;49.63;96723.16;5088092;28;20428;-67
2022/04/07 08:30:34;;;;;;;3.53;1.88;;;;;;;14.04;49.36;96732.59;5081846;28;20036;-68
2022/04/07 08:33:00;;;;;;;3.90;2.20;;;;;;;13.95;49.65;96733.59;5091287;28;20046;-68
2022/04/07 08:35:25;;;;;;;5.38;2.80;;;;;;;13.94;49.82;96722.91;5090629;28;20496;-68
2022/04/07 08:37:51;;;;;;;3.42;2.22;;;;;;;13.99;49.35;96730.91;5093132;28;20028;-73
2022/04/07 08:40:20;;;;;;;3.75;2.13;;;;;;;14.01;49.93;96717.56;5092290;28;20031;-70
2022/04/07 08:42:45;;;;;;;3.55;2.63;;;;;;;14.02;48.99;96712.88;5091436;28;20127;-73
2022/04/07 08:45:11;;;;;;;4.93;2.17;;;;;;;14.04;49.00;96708.56;5093470;28;20397;-73
2022/04/07 08:47:37;;;;;;;3.00;1.70;;;;;;;14.07;49.33;96704.28;5090729;28;20032;-70
2022/04/07 08:50:04;;;;;;;2.60;1.75;;;;;;;14.17;49.41;96700.94;5093537;28;20056;-71
2022/04/07 08:52:30;;;;;;;2.47;1.77;;;;;;;14.19;48.73;96711.63;5093703;28;20035;-69
2022/04/07 08:54:55;;;;;;;4.10;1.70;;;;;;;14.22;48.20;96710.91;5093667;28;20036;-71
2022/04/07 08:57:23;;;;;;;5.55;2.00;;;;;;;14.24;48.40;96698.34;5089842;28;20020;-70
2022/04/07 08:59:48;;;;;;;5.85;2.83;;;;;;;14.31;48.22;96694.13;5091973;28;20103;-71
2022/04/07 09:02:14;;;;;;;4.57;2.47;;;;;;;14.42;49.08;96695.94;5092841;28;20020;-70
2022/04/07 09:04:40;;;;;;;3.80;2.53;;;;;;;14.61;49.22;96699.00;5093163;28;20474;-71
2022/04/07 09:07:07;;;;;;;2.95;2.50;;;;;;;14.67;48.37;96687.31;5090578;28;20405;-70
2022/04/07 09:09:33;;;;;;;4.90;3.35;;;;;;;14.64;48.29;96685.31;5092146;28;20103;-71
2022/04/07 09:12:02;;;;;;;6.40;4.15;;;;;;;14.61;48.78;96693.50;5091768;28;20028;-68
2022/04/07 09:14:33;;;;;;;4.30;3.08;;;;;;;14.56;48.10;96692.63;5091795;28;20024;-68
2022/04/07 09:16:58;;;;;;;4.70;3.35;;;;;;;14.51;48.59;96695.69;5092689;28;20027;-68
2022/04/07 09:19:24;;;;;;;3.95;2.85;;;;;;;14.43;48.93;96683.72;5091833;28;20016;-68
2022/04/07 09:22:06;;;;;;;3.65;2.78;;;;;;;14.36;48.12;96680.06;5092990;28;20028;-70
2022/04/07 09:24:39;;;;;;;7.93;3.08;;;;;;;14.34;48.47;96671.34;5091252;28;20028;-71
2022/04/07 09:27:10;;;;;;;3.42;2.42;;;;;;;14.31;48.53;96666.56;5092703;28;20134;-70
2022/04/07 09:29:45;;;;;;;5.10;2.60;;;;;;;14.34;49.53;96652.03;5092166;28;20490;-70
2022/04/07 09:32:19;;;;;;;4.50;2.60;;;;;;;14.50;50.11;96649.19;5092794;28;20024;-67
2022/04/07 09:34:45;;;;;;;3.50;1.85;;;;;;;14.57;48.49;96641.03;5093373;28;20028;-67
2022/04/07 09:37:14;;;;;;;3.10;2.50;;;;;;;14.52;48.60;96642.13;5091860;28;20489;-68
2022/04/07 09:39:44;;;;;;;3.75;2.40;;;;;;;14.49;47.97;96637.31;5092970;28;20028;-67
2022/04/07 09:42:20;;;;;;;3.28;2.60;;;;;;;14.43;48.60;96638.81;5092055;28;20112;-68
2022/04/07 09:44:51;;;;;;;3.97;2.70;;;;;;;14.40;48.22;96634.03;5092286;28;20079;-69
2022/04/07 09:47:17;;;;;;;4.45;2.40;;;;;;;14.37;49.59;96624.50;5092476;28;20423;-68
2022/04/07 09:49:42;;;;;;;3.00;2.47;;;;;;;14.45;49.47;96628.22;5092448;28;20680;-69
2022/04/07 09:52:10;;;;;;;4.45;2.55;;;;;;;14.58;49.17;96621.34;5092650;28;20024;-68
2022/04/07 09:54:39;;;;;;;3.53;2.47;;;;;;;14.67;49.31;96618.31;5090633;28;20495;-68
2022/04/07 09:57:06;;;;;;;8.90;5.03;;;;;;;14.84;49.70;96614.31;5090756;28;20032;-68
2022/04/07 09:59:31;;;;;;;3.70;2.53;;;;;;;14.96;48.42;96609.75;5091034;28;20024;-68
2022/04/07 10:01:58;;;;;;;4.07;2.20;;;;;;;14.98;48.41;96601.88;5088237;28;20403;-69
2022/04/07 10:04:24;;;;;;;3.35;2.30;;;;;;;14.92;47.72;96601.41;5088943;28;20024;-68
2022/04/07 10:06:51;;;;;;;4.88;2.83;;;;;;;14.80;47.85;96605.19;5092005;28;20028;-68
2022/04/07 10:09:19;;;;;;;6.05;3.00;;;;;;;14.73;48.20;96610.59;5095267;28;20024;-67
2022/04/07 10:11:44;;;;;;;4.88;2.28;;;;;;;14.67;49.08;96596.25;5092480;28;20028;-67
2022/04/07 10:14:11;;;;;;;14.75;10.55;;;;;;;14.70;48.85;96600.28;5089547;28;20028;-68
2022/04/07 10:16:36;;;;;;;7.18;3.63;;;;;;;14.74;47.69;96593.66;5091320;28;20032;-68
2022/04/07 10:19:07;;;;;;;4.50;3.00;;;;;;;14.71;48.05;96588.09;5092012;28;20085;-69
2022/04/07 10:22:10;;;;;;;3.45;2.33;;;;;;;14.71;48.69;96588.88;5087975;28;20036;-69
2022/04/07 10:24:43;;;;;;;5.80;2.70;;;;;;;14.74;48.03;96592.88;5091553;28;20531;-69
2022/04/07 10:27:11;;;;;;;3.63;2.50;;;;;;;14.74;48.43;96584.59;5090746;28;20042;-69
2022/04/07 10:29:40;;;;;;;3.65;1.98;;;;;;;14.76;47.25;96585.00;5091683;28;20031;-68
2022/04/07 10:32:11;;;;;;;3.63;2.25;;;;;;;14.86;47.51;96573.34;5091744;28;20057;-69
2022/04/07 10:34:37;;;;;;;8.55;4.20;;;;;;;14.99;47.75;96573.13;5092026;28;20865;-69
2022/04/07 10:37:06;;;;;;;4.60;2.45;;;;;;;15.07;47.60;96551.94;5092097;28;20020;-68
2022/04/07 10:39:34;;;;;;;2.60;2.20;;;;;;;15.25;47.97;96561.25;5092223;28;20027;-68
2022/04/07 10:42:01;;;;;;;7.25;3.20;;;;;;;15.41;47.71;96552.00;5087085;28;20024;-69
2022/04/07 10:44:27;;;;;;;5.40;3.08;;;;;;;15.66;47.48;96546.78;5090355;28;20131;-69
2022/04/07 10:47:04;;;;;;;5.28;2.83;;;;;;;15.89;46.61;96546.69;5091698;28;20048;-69
2022/04/07 10:49:31;;;;;;;4.55;2.92;;;;;;;16.01;45.70;96548.38;5091473;28;20363;-68
2022/04/07 10:52:00;;;;;;;5.25;2.85;;;;;;;16.17;46.96;96541.81;5090303;28;20052;-69
2022/04/07 10:54:30;;;;;;;3.20;2.25;;;;;;;16.52;45.08;96559.91;5090986;28;20097;-69
2022/04/07 10:56:59;;;;;;;3.45;2.50;;;;;;;16.49;45.37;96553.16;5091554;28;20035;-68
2022/04/07 10:59:25;;;;;;;5.28;2.67;;;;;;;16.62;44.11;96541.81;5091889;28;20024;-69
2022/04/07 11:01:55;;;;;;;2.85;2.30;;;;;;;16.69;44.35;96528.03;5091796;28;20099;-69
2022/04/07 11:04:23;;;;;;;2.85;2.28;;;;;;;16.85;44.31;96515.84;5091453;28;20473;-69
2022/04/07 11:07:17;;;;;;;2.70;2.30;;;;;;;17.07;45.24;96511.28;5091505;28;20492;-69
2022/04/07 11:10:04;;;;;;;3.92;2.10;;;;;;;17.33;43.66;96509.41;5091560;28;20461;-68
2022/04/07 11:12:33;;;;;;;3.63;1.95;;;;;;;17.31;42.54;96506.28;5091306;28;20034;-69
2022/04/07 11:15:01;;;;;;;2.63;1.95;;;;;;;17.29;42.69;96495.56;5091180;28;20039;-69
2022/04/07 11:17:31;;;;;;;5.63;2.30;;;;;;;17.36;42.46;96490.06;5090195;28;20028;-69
2022/04/07 11:20:13;;;;;;;;;;;;;;;17.32;43.19;96492.00;5092147;28;20059;-69
2022/04/07 11:22:52;;;;;;;2.22;1.70;;;;;;;17.26;42.60;96496.34;5088256;28;19930;-68
2022/04/07 11:25:42;;;;;;;3.65;2.10;;;;;;;17.19;43.89;96468.59;5091084;28;20391;-70
2022/04/07 11:28:18;;;;;;;2.60;1.90;;;;;;;17.20;42.94;96472.94;5087608;28;20096;-69
2022/04/07 11:30:50;;;;;;;4.07;2.00;;;;;;;17.16;42.88;96470.19;5090812;28;20081;-68